createdAt,value
2022-10-31T00:02:15.784Z,8.38
2022-10-31T00:04:01.957Z,8.37
2022-10-31T00:05:53.542Z,8.33
2022-10-31T00:07:18.039Z,8.32
2022-10-31T00:09:13.815Z,8.33
2022-10-31T00:10:43.985Z,8.40
2022-10-31T00:12:26.534Z,8.34
2022-10-31T00:14:05.426Z,8.28
2022-10-31T00:15:29.598Z,8.23
2022-10-31T00:17:22.413Z,8.19
2022-10-31T00:18:45.613Z,8.17
2022-10-31T00:20:04.615Z,8.18
2022-10-31T00:22:57.963Z,8.21
2022-10-31T00:24:27.118Z,8.23
2022-10-31T00:26:20.194Z,8.23
2022-10-31T00:28:07.977Z,8.24
2022-10-31T00:30:10.702Z,8.21
2022-10-31T00:31:34.849Z,8.17
2022-10-31T00:33:30.468Z,8.17
2022-10-31T00:34:40.195Z,8.17
2022-10-31T00:35:52.488Z,8.15
2022-10-31T00:37:20.048Z,8.12
2022-10-31T00:38:39.704Z,8.09
2022-10-31T00:39:59.373Z,8.08
2022-10-31T00:41:24.727Z,8.05
2022-10-31T00:42:59.238Z,8.08
2022-10-31T00:44:27.894Z,8.04
2022-10-31T00:46:13.296Z,8.03
2022-10-31T00:47:59.938Z,8.02
2022-10-31T00:49:34.359Z,8.03
2022-10-31T00:50:52.312Z,8.01
2022-10-31T00:52:29.960Z,8.01
2022-10-31T00:54:19.174Z,7.98
2022-10-31T00:56:04.817Z,7.98
2022-10-31T00:57:39.637Z,7.98
2022-10-31T01:00:40.346Z,8.01
2022-10-31T01:01:59.997Z,8.00
2022-10-31T01:03:16.473Z,8.02
2022-10-31T01:04:41.568Z,8.00
2022-10-31T01:06:00.567Z,7.99
2022-10-31T01:07:43.187Z,8.00
2022-10-31T01:09:17.950Z,7.98
2022-10-31T01:11:04.750Z,7.98
2022-10-31T01:12:21.293Z,7.99
2022-10-31T01:13:45.109Z,7.99
2022-10-31T01:15:16.258Z,7.98
2022-10-31T01:16:53.963Z,7.97
2022-10-31T01:18:06.397Z,7.98
2022-10-31T01:19:37.231Z,7.97
2022-10-31T01:21:14.222Z,7.96
2022-10-31T01:22:47.179Z,7.96
2022-10-31T01:24:19.186Z,7.95
2022-10-31T01:25:38.550Z,7.99
2022-10-31T01:27:22.573Z,7.98
2022-10-31T01:29:03.766Z,7.93
2022-10-31T01:30:54.105Z,7.93
2022-10-31T01:32:34.300Z,7.98
2022-10-31T01:34:46.338Z,7.96
2022-10-31T01:38:17.633Z,7.82
2022-10-31T01:40:00.657Z,7.78
2022-10-31T01:41:50.686Z,7.75
2022-10-31T01:43:15.184Z,7.73
2022-10-31T01:44:47.666Z,7.71
2022-10-31T01:48:14.255Z,7.65
2022-10-31T01:49:35.281Z,7.64
2022-10-31T01:51:08.883Z,7.65
2022-10-31T01:52:43.082Z,7.61
2022-10-31T01:57:33.285Z,7.53
2022-10-31T01:58:40.411Z,7.53
2022-10-31T02:02:43.115Z,7.52
2022-10-31T02:04:15.325Z,7.54
2022-10-31T02:05:39.618Z,7.55
2022-10-31T02:07:06.454Z,7.55
2022-10-31T02:08:35.742Z,7.55
2022-10-31T02:09:54.781Z,7.58
2022-10-31T02:11:23.395Z,7.56
2022-10-31T02:12:45.125Z,7.56
2022-10-31T02:14:30.324Z,7.55
2022-10-31T02:15:52.167Z,7.53
2022-10-31T02:19:28.209Z,7.48
2022-10-31T02:20:46.245Z,7.49
2022-10-31T02:22:25.515Z,7.51
2022-10-31T02:24:21.703Z,7.51
2022-10-31T02:26:19.978Z,7.53
2022-10-31T02:30:17.593Z,7.48
2022-10-31T02:33:01.983Z,7.48
2022-10-31T02:34:07.662Z,7.47
2022-10-31T02:35:26.765Z,7.47
2022-10-31T02:38:57.318Z,7.51
2022-10-31T02:41:06.356Z,7.51
2022-10-31T02:42:44.772Z,7.52
2022-10-31T02:44:27.736Z,7.50
2022-10-31T02:46:37.836Z,7.46
2022-10-31T02:48:32.525Z,7.44
2022-10-31T02:50:03.606Z,7.44
2022-10-31T02:51:31.240Z,7.40
2022-10-31T02:53:17.406Z,7.40
2022-10-31T02:55:23.435Z,7.43
2022-10-31T02:56:58.641Z,7.46
2022-10-31T02:58:29.695Z,7.46
2022-10-31T02:59:45.888Z,7.44
2022-10-31T03:01:20.280Z,7.42
2022-10-31T03:03:20.466Z,7.37
2022-10-31T03:05:27.804Z,7.29
2022-10-31T03:07:04.957Z,7.28
2022-10-31T03:08:40.468Z,7.26
2022-10-31T03:10:15.867Z,7.25
2022-10-31T03:14:05.520Z,7.27
2022-10-31T03:16:12.407Z,7.27
2022-10-31T03:17:28.879Z,7.33
2022-10-31T03:18:55.057Z,7.34
2022-10-31T03:20:32.862Z,7.33
2022-10-31T03:22:08.433Z,7.34
2022-10-31T03:23:33.913Z,7.33
2022-10-31T03:27:24.425Z,7.35
2022-10-31T03:29:04.546Z,7.32
2022-10-31T03:30:53.194Z,7.28
2022-10-31T03:34:32.024Z,7.24
2022-10-31T03:36:05.310Z,7.24
2022-10-31T03:37:52.826Z,7.25
2022-10-31T03:39:33.491Z,7.23
2022-10-31T03:41:06.529Z,7.24
2022-10-31T03:42:18.869Z,7.21
2022-10-31T03:43:56.714Z,7.24
2022-10-31T03:45:32.563Z,7.22
2022-10-31T03:46:47.716Z,7.23
2022-10-31T03:48:07.843Z,7.20
2022-10-31T03:49:25.625Z,7.21
2022-10-31T03:51:22.475Z,7.17
2022-10-31T03:53:05.890Z,7.16
2022-10-31T03:54:39.791Z,7.15
2022-10-31T03:56:22.051Z,7.15
2022-10-31T03:58:14.346Z,7.15
2022-10-31T03:59:32.965Z,7.16
2022-10-31T04:00:40.762Z,7.18
2022-10-31T04:02:21.422Z,7.17
2022-10-31T04:03:43.425Z,7.22
2022-10-31T04:05:05.600Z,7.24
2022-10-31T04:06:24.907Z,7.29
2022-10-31T04:10:15.212Z,7.35
2022-10-31T04:11:56.140Z,7.37
2022-10-31T04:13:12.791Z,7.40
2022-10-31T04:14:44.283Z,7.45
2022-10-31T04:16:05.332Z,7.43
2022-10-31T04:17:48.954Z,7.43
2022-10-31T04:19:07.094Z,7.42
2022-10-31T04:20:42.425Z,7.44
2022-10-31T04:22:34.081Z,7.43
2022-10-31T04:24:15.866Z,7.40
